sensor_id;sensor_type;location;lat;lon;timestamp;pressure;altitude;pressure_sealevel;temperature;humidity
6389;BME280;3227;42.654;23.360;2024-03-22T00:02:09;94472.34;;;9.66;44.39
6389;BME280;3227;42.654;23.360;2024-03-22T00:04:35;94474.88;;;9.57;45.13
6389;BME280;3227;42.654;23.360;2024-03-22T00:07:01;94473.97;;;9.43;45.71
6389;BME280;3227;42.654;23.360;2024-03-22T00:09:28;94469.69;;;9.36;46.02
6389;BME280;3227;42.654;23.360;2024-03-22T00:11:54;94473.09;;;9.33;45.97
6389;BME280;3227;42.654;23.360;2024-03-22T00:14:20;94473.94;;;9.29;46.34
6389;BME280;3227;42.654;23.360;2024-03-22T00:16:46;94460.19;;;9.03;46.55
6389;BME280;3227;42.654;23.360;2024-03-22T00:19:15;94466.22;;;9.14;46.45
6389;BME280;3227;42.654;23.360;2024-03-22T00:21:40;94478.13;;;9.13;47.45
6389;BME280;3227;42.654;23.360;2024-03-22T00:24:07;94466.13;;;9.00;48.00
6389;BME280;3227;42.654;23.360;2024-03-22T00:26:33;94467.00;;;9.01;47.81
6389;BME280;3227;42.654;23.360;2024-03-22T00:28:59;94472.94;;;9.00;48.07
6389;BME280;3227;42.654;23.360;2024-03-22T00:31:25;94468.66;;;8.94;47.97
6389;BME280;3227;42.654;23.360;2024-03-22T00:33:52;94472.06;;;8.93;48.23
6389;BME280;3227;42.654;23.360;2024-03-22T00:36:19;94427.66;;;8.64;48.54
6389;BME280;3227;42.654;23.360;2024-03-22T00:38:46;94472.94;;;8.95;48.93
6389;BME280;3227;42.654;23.360;2024-03-22T00:41:12;94478.06;;;8.95;48.66
6389;BME280;3227;42.654;23.360;2024-03-22T00:43:39;94458.44;;;8.88;48.92
6389;BME280;3227;42.654;23.360;2024-03-22T00:46:04;94483.13;;;8.92;48.42
6389;BME280;3227;42.654;23.360;2024-03-22T00:48:31;94451.53;;;8.75;49.15
6389;BME280;3227;42.654;23.360;2024-03-22T00:50:57;94468.63;;;8.87;47.92
6389;BME280;3227;42.654;23.360;2024-03-22T00:53:25;94471.16;;;8.79;48.88
6389;BME280;3227;42.654;23.360;2024-03-22T00:55:51;94469.34;;;8.66;49.00
6389;BME280;3227;42.654;23.360;2024-03-22T00:58:18;94473.59;;;8.62;48.48
6389;BME280;3227;42.654;23.360;2024-03-22T01:00:44;94467.47;;;8.40;49.25
6389;BME280;3227;42.654;23.360;2024-03-22T01:03:11;94475.78;;;8.18;51.07
6389;BME280;3227;42.654;23.360;2024-03-22T01:05:37;94345.78;;;7.26;51.19
6389;BME280;3227;42.654;23.360;2024-03-22T01:08:06;94473.16;;;8.08;51.06
6389;BME280;3227;42.654;23.360;2024-03-22T01:10:33;94448.19;;;7.75;51.09
6389;BME280;3227;42.654;23.360;2024-03-22T01:13:00;94469.63;;;7.90;51.26
6389;BME280;3227;42.654;23.360;2024-03-22T01:15:26;94476.38;;;7.87;51.60
6389;BME280;3227;42.654;23.360;2024-03-22T01:17:53;94482.41;;;7.95;51.77
6389;BME280;3227;42.654;23.360;2024-03-22T01:20:19;94471.34;;;7.94;52.07
6389;BME280;3227;42.654;23.360;2024-03-22T01:22:46;94468.91;;;8.05;51.61
6389;BME280;3227;42.654;23.360;2024-03-22T01:25:11;94474.94;;;8.15;51.63
6389;BME280;3227;42.654;23.360;2024-03-22T01:27:39;94464.72;;;8.16;51.99
6389;BME280;3227;42.654;23.360;2024-03-22T01:30:06;94471.53;;;8.19;51.51
6389;BME280;3227;42.654;23.360;2024-03-22T01:32:34;94470.75;;;8.27;51.52
6389;BME280;3227;42.654;23.360;2024-03-22T01:35:00;94465.63;;;8.26;51.34
6389;BME280;3227;42.654;23.360;2024-03-22T01:37:26;94449.38;;;8.12;51.46
6389;BME280;3227;42.654;23.360;2024-03-22T01:39:52;94458.94;;;8.35;50.32
6389;BME280;3227;42.654;23.360;2024-03-22T01:42:19;94470.13;;;8.48;49.81
6389;BME280;3227;42.654;23.360;2024-03-22T01:44:46;94466.72;;;8.57;49.27
6389;BME280;3227;42.654;23.360;2024-03-22T01:47:15;94460.78;;;8.58;48.88
6389;BME280;3227;42.654;23.360;2024-03-22T01:49:41;94469.34;;;8.66;49.29
6389;BME280;3227;42.654;23.360;2024-03-22T01:52:07;94474.28;;;8.37;50.39
6389;BME280;3227;42.654;23.360;2024-03-22T01:54:33;94470.94;;;8.49;50.36
6389;BME280;3227;42.654;23.360;2024-03-22T01:57:00;94464.91;;;8.36;50.60
6389;BME280;3227;42.654;23.360;2024-03-22T01:59:28;94474.78;;;7.99;51.21
6389;BME280;3227;42.654;23.360;2024-03-22T02:01:56;94465.19;;;7.73;51.19
6389;BME280;3227;42.654;23.360;2024-03-22T02:04:22;94473.88;;;7.93;50.70
6389;BME280;3227;42.654;23.360;2024-03-22T02:06:49;94470.47;;;7.94;50.30
6389;BME280;3227;42.654;23.360;2024-03-22T02:09:14;94459.47;;;7.99;50.08
6389;BME280;3227;42.654;23.360;2024-03-22T02:11:42;94470.72;;;8.21;50.30
6389;BME280;3227;42.654;23.360;2024-03-22T02:14:08;94458.84;;;8.23;49.91
6389;BME280;3227;42.654;23.360;2024-03-22T02:16:35;94470.00;;;8.31;50.10
6389;BME280;3227;42.654;23.360;2024-03-22T02:19:02;94470.03;;;8.40;49.92
6389;BME280;3227;42.654;23.360;2024-03-22T02:21:28;94470.84;;;8.33;50.72
6389;BME280;3227;42.654;23.360;2024-03-22T02:23:55;94465.66;;;8.27;51.41
6389;BME280;3227;42.654;23.360;2024-03-22T02:26:22;94468.97;;;8.14;51.30
6389;BME280;3227;42.654;23.360;2024-03-22T02:28:48;94308.38;;;7.25;51.76
6389;BME280;3227;42.654;23.360;2024-03-22T02:31:15;94480.91;;;8.15;52.63
6389;BME280;3227;42.654;23.360;2024-03-22T02:33:40;94482.53;;;8.10;52.93
6389;BME280;3227;42.654;23.360;2024-03-22T02:36:08;94484.16;;;8.02;53.08
6389;BME280;3227;42.654;23.360;2024-03-22T02:38:34;94496.69;;;7.78;53.54
6389;BME280;3227;42.654;23.360;2024-03-22T02:41:02;94494.78;;;7.58;53.67
6389;BME280;3227;42.654;23.360;2024-03-22T02:43:33;94489.69;;;7.57;54.14
6389;BME280;3227;42.654;23.360;2024-03-22T02:45:59;94493.09;;;7.57;53.49
6389;BME280;3227;42.654;23.360;2024-03-22T02:48:25;94497.44;;;7.64;53.94
6389;BME280;3227;42.654;23.360;2024-03-22T02:50:55;94500.09;;;7.78;53.38
6389;BME280;3227;42.654;23.360;2024-03-22T02:53:21;94509.50;;;7.84;54.11
6389;BME280;3227;42.654;23.360;2024-03-22T02:55:48;94509.09;;;7.46;54.33
6389;BME280;3227;42.654;23.360;2024-03-22T02:58:16;94505.75;;;7.48;54.04
6389;BME280;3227;42.654;23.360;2024-03-22T03:00:43;94498.00;;;7.39;53.86
6389;BME280;3227;42.654;23.360;2024-03-22T03:03:09;94511.22;;;7.08;55.25
6389;BME280;3227;42.654;23.360;2024-03-22T03:05:35;94514.88;;;7.30;55.05
6389;BME280;3227;42.654;23.360;2024-03-22T03:08:01;94513.94;;;7.23;54.37
6389;BME280;3227;42.654;23.360;2024-03-22T03:10:29;94513.78;;;7.11;55.41
6389;BME280;3227;42.654;23.360;2024-03-22T03:12:55;94510.34;;;7.06;55.83
6389;BME280;3227;42.654;23.360;2024-03-22T03:15:23;94513.69;;;7.03;55.75
6389;BME280;3227;42.654;23.360;2024-03-22T03:17:49;94519.03;;;7.21;55.55
6389;BME280;3227;42.654;23.360;2024-03-22T03:20:17;94518.69;;;6.96;57.75
6389;BME280;3227;42.654;23.360;2024-03-22T03:22:43;94426.22;;;6.38;56.81
6389;BME280;3227;42.654;23.360;2024-03-22T03:25:09;94447.78;;;6.63;57.14
6389;BME280;3227;42.654;23.360;2024-03-22T03:27:35;94533.41;;;7.18;57.13
6389;BME280;3227;42.654;23.360;2024-03-22T03:30:02;94529.19;;;7.20;56.58
6389;BME280;3227;42.654;23.360;2024-03-22T03:32:29;94533.50;;;7.24;56.08
6389;BME280;3227;42.654;23.360;2024-03-22T03:34:56;94525.75;;;7.18;55.48
6389;BME280;3227;42.654;23.360;2024-03-22T03:37:22;94530.91;;;7.21;55.59
6389;BME280;3227;42.654;23.360;2024-03-22T03:39:48;94534.34;;;7.26;55.47
6389;BME280;3227;42.654;23.360;2024-03-22T03:42:14;94536.84;;;7.21;54.37
6389;BME280;3227;42.654;23.360;2024-03-22T03:44:41;94535.94;;;7.18;54.51
6389;BME280;3227;42.654;23.360;2024-03-22T03:47:07;94542.81;;;7.25;54.75
6389;BME280;3227;42.654;23.360;2024-03-22T03:49:35;94548.78;;;7.25;54.90
6389;BME280;3227;42.654;23.360;2024-03-22T03:52:00;94542.81;;;7.22;54.44
6389;BME280;3227;42.654;23.360;2024-03-22T03:54:28;94550.53;;;7.28;53.53
6389;BME280;3227;42.654;23.360;2024-03-22T03:56:53;94547.13;;;7.28;53.51
6389;BME280;3227;42.654;23.360;2024-03-22T03:59:20;94553.03;;;7.25;53.24
6389;BME280;3227;42.654;23.360;2024-03-22T04:01:46;94557.38;;;7.32;53.13
6389;BME280;3227;42.654;23.360;2024-03-22T04:04:13;94550.59;;;7.34;52.98
6389;BME280;3227;42.654;23.360;2024-03-22T04:06:40;94554.06;;;7.38;52.47
6389;BME280;3227;42.654;23.360;2024-03-22T04:09:07;94555.69;;;7.34;52.99
6389;BME280;3227;42.654;23.360;2024-03-22T04:11:32;94539.31;;;7.14;53.71
6389;BME280;3227;42.654;23.360;2024-03-22T04:13:59;94559.63;;;7.11;54.29
6389;BME280;3227;42.654;23.360;2024-03-22T04:16:25;94549.25;;;6.96;54.92
6389;BME280;3227;42.654;23.360;2024-03-22T04:18:53;94560.25;;;6.95;55.25
6389;BME280;3227;42.654;23.360;2024-03-22T04:21:18;94564.47;;;6.90;55.10
6389;BME280;3227;42.654;23.360;2024-03-22T04:23:47;94563.50;;;6.84;55.32
6389;BME280;3227;42.654;23.360;2024-03-22T04:26:12;94563.63;;;6.91;54.45
6389;BME280;3227;42.654;23.360;2024-03-22T04:28:39;94565.44;;;6.99;54.63
6389;BME280;3227;42.654;23.360;2024-03-22T04:31:06;94569.78;;;7.06;54.47
6389;BME280;3227;42.654;23.360;2024-03-22T04:33:36;94568.16;;;7.13;54.30
6389;BME280;3227;42.654;23.360;2024-03-22T04:36:03;94579.34;;;7.22;53.84
6389;BME280;3227;42.654;23.360;2024-03-22T04:38:30;94570.16;;;7.35;53.25
6389;BME280;3227;42.654;23.360;2024-03-22T04:40:58;94566.94;;;7.48;53.04
6389;BME280;3227;42.654;23.360;2024-03-22T04:43:25;94575.72;;;7.75;52.54
6389;BME280;3227;42.654;23.360;2024-03-22T04:45:52;94581.91;;;7.95;51.85
6389;BME280;3227;42.654;23.360;2024-03-22T04:48:19;94464.75;;;7.30;51.48
6389;BME280;3227;42.654;23.360;2024-03-22T04:50:46;94443.72;;;7.48;51.09
6389;BME280;3227;42.654;23.360;2024-03-22T04:53:13;94573.03;;;8.43;51.06
6389;BME280;3227;42.654;23.360;2024-03-22T04:55:40;94586.91;;;8.72;50.60
6389;BME280;3227;42.654;23.360;2024-03-22T04:58:13;94575.13;;;8.92;49.60
6389;BME280;3227;42.654;23.360;2024-03-22T05:00:40;94585.53;;;9.20;49.24
6389;BME280;3227;42.654;23.360;2024-03-22T05:03:06;94545.44;;;9.15;48.38
6389;BME280;3227;42.654;23.360;2024-03-22T05:05:33;94584.00;;;9.53;48.34
6389;BME280;3227;42.654;23.360;2024-03-22T05:07:59;94590.88;;;9.68;47.73
6389;BME280;3227;42.654;23.360;2024-03-22T05:10:26;94581.56;;;9.84;48.15
6389;BME280;3227;42.654;23.360;2024-03-22T05:15:38;94595.38;;;10.35;46.95
6389;BME280;3227;42.654;23.360;2024-03-22T05:18:04;94597.13;;;10.69;46.08
6389;BME280;3227;42.654;23.360;2024-03-22T05:20:31;94596.25;;;10.96;45.22
6389;BME280;3227;42.654;23.360;2024-03-22T05:22:57;94598.81;;;11.28;44.01
6389;BME280;3227;42.654;23.360;2024-03-22T05:25:23;94593.63;;;11.40;43.97
6389;BME280;3227;42.654;23.360;2024-03-22T05:27:49;94607.31;;;11.48;44.07
6389;BME280;3227;42.654;23.360;2024-03-22T05:30:16;94606.41;;;11.63;43.73
6389;BME280;3227;42.654;23.360;2024-03-22T05:32:43;94605.53;;;11.80;43.76
6389;BME280;3227;42.654;23.360;2024-03-22T05:35:10;94609.75;;;11.95;42.64
6389;BME280;3227;42.654;23.360;2024-03-22T05:37:35;94608.03;;;11.99;42.44
6389;BME280;3227;42.654;23.360;2024-03-22T05:40:03;94603.75;;;11.98;42.97
6389;BME280;3227;42.654;23.360;2024-03-22T05:42:30;94611.28;;;12.30;43.00
6389;BME280;3227;42.654;23.360;2024-03-22T05:44:56;94614.63;;;12.47;42.23
6389;BME280;3227;42.654;23.360;2024-03-22T05:47:22;94604.28;;;12.53;40.66
6389;BME280;3227;42.654;23.360;2024-03-22T05:49:50;94622.16;;;12.76;41.27
6389;BME280;3227;42.654;23.360;2024-03-22T05:52:17;94621.25;;;12.84;40.97
6389;BME280;3227;42.654;23.360;2024-03-22T05:54:43;94622.00;;;12.94;40.45
6389;BME280;3227;42.654;23.360;2024-03-22T05:57:09;94615.03;;;13.14;40.28
6389;BME280;3227;42.654;23.360;2024-03-22T05:59:36;94625.00;;;13.48;39.67
6389;BME280;3227;42.654;23.360;2024-03-22T06:02:02;94628.44;;;13.50;39.25
6389;BME280;3227;42.654;23.360;2024-03-22T06:04:29;94631.00;;;13.48;39.46
6389;BME280;3227;42.654;23.360;2024-03-22T06:06:56;94626.50;;;13.68;41.99
6389;BME280;3227;42.654;23.360;2024-03-22T06:09:25;94629.56;;;14.01;42.02
6389;BME280;3227;42.654;23.360;2024-03-22T06:12:00;94607.69;;;14.34;42.29
6389;BME280;3227;42.654;23.360;2024-03-22T06:14:27;94624.03;;;14.94;41.75
6389;BME280;3227;42.654;23.360;2024-03-22T06:16:53;94619.81;;;15.42;40.33
6389;BME280;3227;42.654;23.360;2024-03-22T06:19:20;94617.44;;;15.81;37.11
6389;BME280;3227;42.654;23.360;2024-03-22T06:21:46;94623.63;;;15.72;34.85
6389;BME280;3227;42.654;23.360;2024-03-22T06:24:14;94623.84;;;15.58;38.17
6389;BME280;3227;42.654;23.360;2024-03-22T06:26:40;94628.50;;;15.38;34.87
6389;BME280;3227;42.654;23.360;2024-03-22T06:29:06;94625.06;;;15.38;35.78
6389;BME280;3227;42.654;23.360;2024-03-22T06:31:32;94547.38;;;15.02;34.87
6389;BME280;3227;42.654;23.360;2024-03-22T06:33:59;94628.84;;;15.15;35.27
6389;BME280;3227;42.654;23.360;2024-03-22T06:36:27;94635.34;;;14.85;35.03
6389;BME280;3227;42.654;23.360;2024-03-22T06:38:54;94625.25;;;14.72;35.28
6389;BME280;3227;42.654;23.360;2024-03-22T06:41:22;94622.59;;;14.75;36.25
6389;BME280;3227;42.654;23.360;2024-03-22T06:43:48;94625.78;;;14.92;34.97
6389;BME280;3227;42.654;23.360;2024-03-22T06:46:14;94637.88;;;14.90;35.59
6389;BME280;3227;42.654;23.360;2024-03-22T06:48:41;94636.91;;;14.97;37.27
6389;BME280;3227;42.654;23.360;2024-03-22T06:51:06;94640.25;;;15.04;34.87
6389;BME280;3227;42.654;23.360;2024-03-22T06:53:33;94465.19;;;13.66;34.58
6389;BME280;3227;42.654;23.360;2024-03-22T06:55:59;94647.75;;;14.61;34.85
6389;BME280;3227;42.654;23.360;2024-03-22T06:58:29;94646.44;;;14.28;35.67
6389;BME280;3227;42.654;23.360;2024-03-22T07:00:55;94651.47;;;14.35;35.32
6389;BME280;3227;42.654;23.360;2024-03-22T07:03:21;94638.72;;;14.26;35.60
6389;BME280;3227;42.654;23.360;2024-03-22T07:05:47;94659.19;;;13.59;37.07
6389;BME280;3227;42.654;23.360;2024-03-22T07:08:14;94625.94;;;12.18;38.65
6389;BME280;3227;42.654;23.360;2024-03-22T07:10:40;94647.72;;;12.95;39.17
6389;BME280;3227;42.654;23.360;2024-03-22T07:13:10;94644.81;;;13.38;38.07
6389;BME280;3227;42.654;23.360;2024-03-22T07:15:37;94642.72;;;13.78;37.49
6389;BME280;3227;42.654;23.360;2024-03-22T07:18:04;94510.34;;;13.19;36.89
6389;BME280;3227;42.654;23.360;2024-03-22T07:20:31;94656.69;;;14.32;37.28
6389;BME280;3227;42.654;23.360;2024-03-22T07:22:58;94656.50;;;13.73;38.16
6389;BME280;3227;42.654;23.360;2024-03-22T07:25:23;94659.97;;;13.68;38.95
6389;BME280;3227;42.654;23.360;2024-03-22T07:27:50;94664.00;;;12.98;39.20
6389;BME280;3227;42.654;23.360;2024-03-22T07:30:16;94659.63;;;13.13;39.70
6389;BME280;3227;42.654;23.360;2024-03-22T07:32:45;94655.13;;;13.38;38.78
6389;BME280;3227;42.654;23.360;2024-03-22T07:35:12;94659.34;;;13.45;39.27
6389;BME280;3227;42.654;23.360;2024-03-22T07:37:39;94659.16;;;12.46;41.01
6389;BME280;3227;42.654;23.360;2024-03-22T07:40:06;94662.69;;;12.34;40.97
6389;BME280;3227;42.654;23.360;2024-03-22T07:42:33;94664.38;;;12.29;41.64
6389;BME280;3227;42.654;23.360;2024-03-22T07:44:58;94665.88;;;12.71;41.53
6389;BME280;3227;42.654;23.360;2024-03-22T07:47:25;94668.16;;;13.12;39.81
6389;BME280;3227;42.654;23.360;2024-03-22T07:50:10;94641.22;;;13.57;38.14
6389;BME280;3227;42.654;23.360;2024-03-22T07:52:38;94670.75;;;13.14;38.63
6389;BME280;3227;42.654;23.360;2024-03-22T07:55:28;94663.75;;;13.34;39.74
6389;BME280;3227;42.654;23.360;2024-03-22T07:57:55;94655.41;;;13.93;39.03
6389;BME280;3227;42.654;23.360;2024-03-22T08:00:23;94664.31;;;14.41;36.81
6389;BME280;3227;42.654;23.360;2024-03-22T08:02:50;94663.50;;;14.36;36.46
6389;BME280;3227;42.654;23.360;2024-03-22T08:05:17;94672.09;;;14.40;36.39
6389;BME280;3227;42.654;23.360;2024-03-22T08:07:44;94659.19;;;14.37;37.54
6389;BME280;3227;42.654;23.360;2024-03-22T08:10:10;94663.09;;;14.71;36.70
6389;BME280;3227;42.654;23.360;2024-03-22T08:12:37;94665.06;;;15.12;36.92
6389;BME280;3227;42.654;23.360;2024-03-22T08:15:04;94657.78;;;15.36;35.62
6389;BME280;3227;42.654;23.360;2024-03-22T08:17:31;94578.69;;;14.81;34.83
6389;BME280;3227;42.654;23.360;2024-03-22T08:19:56;94660.63;;;14.61;35.89
6389;BME280;3227;42.654;23.360;2024-03-22T08:22:24;94653.78;;;14.58;36.48
6389;BME280;3227;42.654;23.360;2024-03-22T08:24:50;94649.38;;;14.68;36.73
6389;BME280;3227;42.654;23.360;2024-03-22T08:27:17;94649.69;;;15.06;37.62
6389;BME280;3227;42.654;23.360;2024-03-22T08:29:43;94653.50;;;15.35;36.04
6389;BME280;3227;42.654;23.360;2024-03-22T08:32:09;94645.22;;;15.68;35.51
6389;BME280;3227;42.654;23.360;2024-03-22T08:34:35;94653.50;;;15.87;34.49
6389;BME280;3227;42.654;23.360;2024-03-22T08:37:02;94653.38;;;14.90;35.72
6389;BME280;3227;42.654;23.360;2024-03-22T08:39:30;94652.03;;;14.63;35.79
6389;BME280;3227;42.654;23.360;2024-03-22T08:41:57;94654.25;;;14.86;35.48
6389;BME280;3227;42.654;23.360;2024-03-22T08:44:23;94652.91;;;15.17;35.20
6389;BME280;3227;42.654;23.360;2024-03-22T08:46:50;94651.59;;;15.46;35.28
6389;BME280;3227;42.654;23.360;2024-03-22T08:49:15;94657.66;;;15.43;34.40
6389;BME280;3227;42.654;23.360;2024-03-22T08:51:44;94654.97;;;15.49;34.43
6389;BME280;3227;42.654;23.360;2024-03-22T08:54:11;94657.28;;;15.66;34.28
6389;BME280;3227;42.654;23.360;2024-03-22T08:56:39;94659.34;;;15.46;33.93
6389;BME280;3227;42.654;23.360;2024-03-22T08:59:05;94664.84;;;14.68;34.91
6389;BME280;3227;42.654;23.360;2024-03-22T09:01:32;94657.44;;;14.43;35.60
6389;BME280;3227;42.654;23.360;2024-03-22T09:03:58;94663.19;;;14.62;34.93
6389;BME280;3227;42.654;23.360;2024-03-22T09:06:24;94659.69;;;13.96;36.62
6389;BME280;3227;42.654;23.360;2024-03-22T09:08:50;94650.44;;;13.77;37.24
6389;BME280;3227;42.654;23.360;2024-03-22T09:11:17;94660.19;;;14.27;36.78
6389;BME280;3227;42.654;23.360;2024-03-22T09:13:45;94651.13;;;13.94;37.08
6389;BME280;3227;42.654;23.360;2024-03-22T09:16:15;94630.38;;;14.06;36.60
6389;BME280;3227;42.654;23.360;2024-03-22T09:18:40;94639.41;;;14.42;35.30
6389;BME280;3227;42.654;23.360;2024-03-22T09:21:07;94647.16;;;14.37;36.40
6389;BME280;3227;42.654;23.360;2024-03-22T09:23:36;94615.16;;;14.57;35.71
6389;BME280;3227;42.654;23.360;2024-03-22T09:26:02;94619.75;;;14.95;34.61
6389;BME280;3227;42.654;23.360;2024-03-22T09:28:28;94634.78;;;15.22;34.42
6389;BME280;3227;42.654;23.360;2024-03-22T09:30:56;94627.44;;;14.98;34.02
6389;BME280;3227;42.654;23.360;2024-03-22T09:33:22;94641.19;;;14.35;35.31
6389;BME280;3227;42.654;23.360;2024-03-22T09:35:50;94636.41;;;14.06;36.39
6389;BME280;3227;42.654;23.360;2024-03-22T09:38:16;94609.56;;;14.24;35.73
6389;BME280;3227;42.654;23.360;2024-03-22T09:40:43;94633.56;;;14.26;35.41
6389;BME280;3227;42.654;23.360;2024-03-22T09:43:09;94626.56;;;14.36;34.90
6389;BME280;3227;42.654;23.360;2024-03-22T09:45:41;94580.38;;;14.19;35.06
6389;BME280;3227;42.654;23.360;2024-03-22T09:48:10;94633.72;;;14.80;35.81
6389;BME280;3227;42.654;23.360;2024-03-22T09:50:37;94620.34;;;14.54;34.50
6389;BME280;3227;42.654;23.360;2024-03-22T09:53:03;94623.22;;;14.29;34.87
6389;BME280;3227;42.654;23.360;2024-03-22T09:55:32;94626.75;;;14.21;35.14
6389;BME280;3227;42.654;23.360;2024-03-22T09:57:59;94630.22;;;14.18;34.82
6389;BME280;3227;42.654;23.360;2024-03-22T10:00:25;94624.94;;;14.27;34.88
6389;BME280;3227;42.654;23.360;2024-03-22T10:02:52;94619.38;;;14.61;35.16
6389;BME280;3227;42.654;23.360;2024-03-22T10:05:20;94615.53;;;14.89;34.38
6389;BME280;3227;42.654;23.360;2024-03-22T10:07:47;94611.16;;;14.93;34.12
6389;BME280;3227;42.654;23.360;2024-03-22T10:10:14;94621.88;;;14.67;34.10
6389;BME280;3227;42.654;23.360;2024-03-22T10:12:41;94611.88;;;14.45;34.68
6389;BME280;3227;42.654;23.360;2024-03-22T10:15:08;94610.03;;;14.54;34.43
6389;BME280;3227;42.654;23.360;2024-03-22T10:17:34;94618.44;;;14.66;34.56
6389;BME280;3227;42.654;23.360;2024-03-22T10:20:02;94615.28;;;14.48;34.46
6389;BME280;3227;42.654;23.360;2024-03-22T10:22:29;94622.00;;;13.90;36.27
6389;BME280;3227;42.654;23.360;2024-03-22T10:24:56;94613.69;;;13.62;36.58
6389;BME280;3227;42.654;23.360;2024-03-22T10:27:26;94608.31;;;13.84;37.64
6389;BME280;3227;42.654;23.360;2024-03-22T10:29:54;94607.41;;;13.88;35.52
6389;BME280;3227;42.654;23.360;2024-03-22T10:32:20;94595.16;;;13.30;36.60
6389;BME280;3227;42.654;23.360;2024-03-22T10:34:47;94596.03;;;13.27;36.71
6389;BME280;3227;42.654;23.360;2024-03-22T10:37:15;94590.53;;;13.59;36.19
6389;BME280;3227;42.654;23.360;2024-03-22T10:39:43;94593.75;;;13.81;35.37
6389;BME280;3227;42.654;23.360;2024-03-22T10:42:11;94589.91;;;14.14;35.28
6389;BME280;3227;42.654;23.360;2024-03-22T10:44:38;94580.47;;;14.13;35.11
6389;BME280;3227;42.654;23.360;2024-03-22T10:47:05;94585.09;;;13.85;35.45
6389;BME280;3227;42.654;23.360;2024-03-22T10:49:37;94581.97;;;13.60;35.33
6389;BME280;3227;42.654;23.360;2024-03-22T10:52:06;94574.19;;;13.65;35.77
6389;BME280;3227;42.654;23.360;2024-03-22T10:54:37;94579.75;;;14.03;36.20
6389;BME280;3227;42.654;23.360;2024-03-22T10:57:05;94571.66;;;14.29;35.04
6389;BME280;3227;42.654;23.360;2024-03-22T10:59:34;94561.81;;;14.59;34.54
6389;BME280;3227;42.654;23.360;2024-03-22T11:02:03;94535.25;;;14.54;34.36
6389;BME280;3227;42.654;23.360;2024-03-22T11:04:30;94446.19;;;13.75;33.66
6389;BME280;3227;42.654;23.360;2024-03-22T11:06:56;94570.59;;;13.78;35.40
6389;BME280;3227;42.654;23.360;2024-03-22T11:09:24;94558.56;;;13.79;35.22
6389;BME280;3227;42.654;23.360;2024-03-22T11:11:51;94563.06;;;14.32;34.29
6389;BME280;3227;42.654;23.360;2024-03-22T11:14:25;94553.31;;;14.52;34.37
6389;BME280;3227;42.654;23.360;2024-03-22T11:16:50;94550.44;;;14.73;33.64
6389;BME280;3227;42.654;23.360;2024-03-22T11:19:18;94540.56;;;14.98;33.54
6389;BME280;3227;42.654;23.360;2024-03-22T11:21:43;94495.50;;;14.67;33.67
6389;BME280;3227;42.654;23.360;2024-03-22T11:24:10;94549.06;;;15.05;33.10
6389;BME280;3227;42.654;23.360;2024-03-22T11:26:36;94550.97;;;14.38;33.88
6389;BME280;3227;42.654;23.360;2024-03-22T11:29:03;94530.84;;;14.62;33.80
6389;BME280;3227;42.654;23.360;2024-03-22T11:31:30;94534.69;;;14.90;32.62
6389;BME280;3227;42.654;23.360;2024-03-22T11:33:57;94474.28;;;14.51;33.00
6389;BME280;3227;42.654;23.360;2024-03-22T11:36:23;94543.22;;;14.92;33.15
6389;BME280;3227;42.654;23.360;2024-03-22T11:38:50;94538.16;;;14.88;33.89
6389;BME280;3227;42.654;23.360;2024-03-22T11:41:21;94534.50;;;14.99;34.22
6389;BME280;3227;42.654;23.360;2024-03-22T11:43:50;94528.88;;;15.27;33.41
6389;BME280;3227;42.654;23.360;2024-03-22T11:46:16;94513.94;;;15.42;33.68
6389;BME280;3227;42.654;23.360;2024-03-22T11:48:45;94522.06;;;15.69;33.34
6389;BME280;3227;42.654;23.360;2024-03-22T11:51:16;94522.47;;;15.90;33.19
6389;BME280;3227;42.654;23.360;2024-03-22T11:53:48;94513.00;;;15.91;32.21
6389;BME280;3227;42.654;23.360;2024-03-22T11:56:17;94516.63;;;15.82;31.95
6389;BME280;3227;42.654;23.360;2024-03-22T11:58:46;94505.44;;;15.82;32.04
6389;BME280;3227;42.654;23.360;2024-03-22T12:01:12;94503.50;;;15.91;32.53
6389;BME280;3227;42.654;23.360;2024-03-22T12:03:39;94498.03;;;15.65;32.38
6389;BME280;3227;42.654;23.360;2024-03-22T12:06:09;94499.81;;;15.63;32.44
6389;BME280;3227;42.654;23.360;2024-03-22T12:08:36;94492.47;;;15.85;32.33
6389;BME280;3227;42.654;23.360;2024-03-22T12:11:03;94494.44;;;16.14;32.25
6389;BME280;3227;42.654;23.360;2024-03-22T12:13:30;94497.81;;;16.16;31.31
6389;BME280;3227;42.654;23.360;2024-03-22T12:15:56;94482.50;;;16.07;30.61
6389;BME280;3227;42.654;23.360;2024-03-22T12:18:23;94484.00;;;16.17;30.85
6389;BME280;3227;42.654;23.360;2024-03-22T12:20:49;94477.56;;;16.34;30.81
6389;BME280;3227;42.654;23.360;2024-03-22T12:23:17;94474.47;;;16.20;30.96
6389;BME280;3227;42.654;23.360;2024-03-22T12:25:42;94475.13;;;16.30;30.38
6389;BME280;3227;42.654;23.360;2024-03-22T12:28:09;94476.72;;;15.97;30.35
6389;BME280;3227;42.654;23.360;2024-03-22T12:30:37;94492.59;;;15.33;31.28
6389;BME280;3227;42.654;23.360;2024-03-22T12:33:04;94472.53;;;14.52;31.81
6389;BME280;3227;42.654;23.360;2024-03-22T12:35:33;94433.22;;;14.39;32.34
6389;BME280;3227;42.654;23.360;2024-03-22T12:38:00;94460.75;;;14.34;32.21
6389;BME280;3227;42.654;23.360;2024-03-22T12:40:28;94471.47;;;14.08;33.36
6389;BME280;3227;42.654;23.360;2024-03-22T12:42:55;94387.97;;;13.63;32.65
6389;BME280;3227;42.654;23.360;2024-03-22T12:45:22;94473.63;;;14.38;32.28
6389;BME280;3227;42.654;23.360;2024-03-22T12:47:48;94473.13;;;14.69;32.47
6389;BME280;3227;42.654;23.360;2024-03-22T12:50:15;94463.78;;;14.63;32.06
6389;BME280;3227;42.654;23.360;2024-03-22T12:52:41;94468.03;;;15.15;30.81
6389;BME280;3227;42.654;23.360;2024-03-22T12:55:09;94467.75;;;15.29;31.31
6389;BME280;3227;42.654;23.360;2024-03-22T12:57:36;94469.81;;;15.56;31.49
6389;BME280;3227;42.654;23.360;2024-03-22T13:00:05;94461.47;;;15.83;31.14
6389;BME280;3227;42.654;23.360;2024-03-22T13:02:38;94451.94;;;15.87;31.07
6389;BME280;3227;42.654;23.360;2024-03-22T13:05:06;94451.84;;;15.90;30.74
6389;BME280;3227;42.654;23.360;2024-03-22T13:07:32;94460.13;;;15.66;30.64
6389;BME280;3227;42.654;23.360;2024-03-22T13:09:59;94456.69;;;15.65;30.68
6389;BME280;3227;42.654;23.360;2024-03-22T13:12:25;94448.91;;;15.68;31.17
6389;BME280;3227;42.654;23.360;2024-03-22T13:14:54;94441.78;;;15.79;31.23
6389;BME280;3227;42.654;23.360;2024-03-22T13:17:20;94445.25;;;15.78;31.02